BVX359A EGLL-DNAA
Flight info
| Callsign | BVX359A |
|---|---|
| Flight time | N/A |
| Altitude | 39000 |
| Route | MAXIT Y803 MID L151 SITET UN859 LGL/N0470F390 UN859 SOPIL DCT BALAN DCT EVPOK DCT NARAK DCT GAI DCT LOMRA/N0475F410 DCT ROCAN DCT PUMAL N859 MOGIL UZ333 ZEM/N0465F400 UM989 BSA/N0471F410 UJ36 TGU UM508 BOD UR978 AS DCT MOLIT UA604 MIMBA/N0373F230 A604 KAN/N0468F400 DCT KUA/N0377F240 V456 OXORU OXORU1R |
| Aircraft | B77L/H-SDE1E2E3FGHIJ2J3J4J5M1RWXY/LB1D1 |
Departure
| Time | N/A |
|---|---|
| Airport | London Heathrow Airport (EGLL) |
Arrival
| Time | 2026-05-03 22:16 |
|---|---|
| Airport | Nnamdi Azikiwe International Airport (DNAA) |
| Time | Latitude | Longitude | Altitude | Speed | Heading |
|---|---|---|---|---|---|
| 2026-05-03 21:17 | 15.18386 | 8.19078 | 40847 ft | 468 kts | 179° |
| 2026-05-03 21:17 | 15.16236 | 8.19298 | 40843 ft | 468 kts | 179° |
| 2026-05-03 21:17 | 15.08655 | 8.20057 | 40849 ft | 469 kts | 179° |
| 2026-05-03 21:18 | 15.02157 | 8.20693 | 40835 ft | 469 kts | 179° |
| 2026-05-03 21:18 | 14.95661 | 8.21325 | 40834 ft | 469 kts | 179° |
| 2026-05-03 21:19 | 14.89161 | 8.21958 | 40834 ft | 468 kts | 179° |
| 2026-05-03 21:19 | 14.82680 | 8.22589 | 40846 ft | 468 kts | 179° |
| 2026-05-03 21:20 | 14.76206 | 8.23219 | 40825 ft | 467 kts | 179° |
| 2026-05-03 21:20 | 14.69739 | 8.23848 | 40843 ft | 467 kts | 179° |
| 2026-05-03 21:21 | 14.63273 | 8.24476 | 40839 ft | 467 kts | 179° |
| 2026-05-03 21:21 | 14.56812 | 8.25104 | 40845 ft | 467 kts | 179° |
| 2026-05-03 21:22 | 14.50340 | 8.25732 | 40835 ft | 467 kts | 179° |
| 2026-05-03 21:22 | 14.43872 | 8.26359 | 40843 ft | 467 kts | 179° |
| 2026-05-03 21:23 | 14.37406 | 8.26986 | 40833 ft | 467 kts | 179° |
| 2026-05-03 21:23 | 14.30933 | 8.27613 | 40835 ft | 467 kts | 179° |
| 2026-05-03 21:24 | 14.24458 | 8.28240 | 40840 ft | 467 kts | 179° |
| 2026-05-03 21:24 | 14.17980 | 8.28867 | 40827 ft | 467 kts | 179° |
| 2026-05-03 21:25 | 14.11503 | 8.29494 | 40834 ft | 467 kts | 179° |
| 2026-05-03 21:25 | 14.05026 | 8.30120 | 40836 ft | 467 kts | 179° |
| 2026-05-03 21:26 | 13.98554 | 8.30746 | 40831 ft | 467 kts | 179° |
| 2026-05-03 21:26 | 13.92078 | 8.31371 | 40843 ft | 467 kts | 179° |
| 2026-05-03 21:27 | 13.85602 | 8.31996 | 40834 ft | 467 kts | 179° |
| 2026-05-03 21:27 | 13.79126 | 8.32621 | 40834 ft | 467 kts | 179° |
| 2026-05-03 21:28 | 13.72650 | 8.33244 | 40838 ft | 467 kts | 179° |
| 2026-05-03 21:28 | 13.66181 | 8.33854 | 40845 ft | 467 kts | 179° |
| 2026-05-03 21:29 | 13.59712 | 8.34462 | 40831 ft | 467 kts | 179° |
| 2026-05-03 21:29 | 13.53247 | 8.35071 | 40846 ft | 466 kts | 179° |
| 2026-05-03 21:30 | 13.46784 | 8.35680 | 40840 ft | 466 kts | 179° |
| 2026-05-03 21:30 | 13.40369 | 8.36284 | 40840 ft | 466 kts | 179° |
| 2026-05-03 21:31 | 13.33897 | 8.36893 | 40843 ft | 466 kts | 178° |
| 2026-05-03 21:31 | 13.27442 | 8.37500 | 40851 ft | 466 kts | 178° |
| 2026-05-03 21:32 | 13.20991 | 8.38107 | 40844 ft | 465 kts | 178° |
| 2026-05-03 21:32 | 13.14547 | 8.38713 | 40846 ft | 465 kts | 178° |
| 2026-05-03 21:33 | 13.08104 | 8.39318 | 40844 ft | 464 kts | 178° |
| 2026-05-03 21:33 | 13.01671 | 8.39950 | 40843 ft | 464 kts | 178° |
| 2026-05-03 21:34 | 12.95245 | 8.40595 | 40846 ft | 464 kts | 178° |
| 2026-05-03 21:34 | 12.88812 | 8.41237 | 40849 ft | 464 kts | 178° |
| 2026-05-03 21:35 | 12.82374 | 8.41876 | 40853 ft | 465 kts | 178° |
| 2026-05-03 21:35 | 12.75931 | 8.42514 | 40853 ft | 465 kts | 178° |
| 2026-05-03 21:36 | 12.69484 | 8.43147 | 40860 ft | 465 kts | 178° |
| 2026-05-03 21:36 | 12.63038 | 8.43779 | 40863 ft | 466 kts | 178° |
| 2026-05-03 21:37 | 12.56577 | 8.44412 | 40865 ft | 467 kts | 178° |
| 2026-05-03 21:37 | 12.51195 | 8.44940 | 40864 ft | 468 kts | 178° |
| 2026-05-03 21:38 | 12.44711 | 8.45576 | 40871 ft | 469 kts | 178° |
| 2026-05-03 21:38 | 12.38216 | 8.46212 | 40868 ft | 469 kts | 178° |
| 2026-05-03 21:39 | 12.31670 | 8.46853 | 40888 ft | 470 kts | 178° |
| 2026-05-03 21:39 | 12.25213 | 8.47486 | 40877 ft | 469 kts | 178° |
| 2026-05-03 21:40 | 12.18716 | 8.48122 | 40886 ft | 469 kts | 178° |
| 2026-05-03 21:40 | 12.12228 | 8.48757 | 40884 ft | 468 kts | 178° |
| 2026-05-03 21:41 | 12.05765 | 8.49065 | 40884 ft | 460 kts | 191° |
| 2026-05-03 21:41 | 12.02681 | 8.48309 | 40903 ft | 454 kts | 202° |
| 2026-05-03 21:41 | 11.99827 | 8.46971 | 40901 ft | 450 kts | 214° |
| 2026-05-03 21:42 | 11.94772 | 8.43270 | 40905 ft | 448 kts | 218° |
| 2026-05-03 21:42 | 11.89741 | 8.39496 | 40901 ft | 449 kts | 218° |
| 2026-05-03 21:43 | 11.84671 | 8.35744 | 40910 ft | 451 kts | 217° |
| 2026-05-03 21:43 | 11.79573 | 8.32006 | 40914 ft | 452 kts | 217° |
| 2026-05-03 21:44 | 11.74449 | 8.28260 | 40928 ft | 454 kts | 217° |
| 2026-05-03 21:44 | 11.69308 | 8.24504 | 40926 ft | 455 kts | 217° |
| 2026-05-03 21:45 | 11.64160 | 8.20743 | 40926 ft | 455 kts | 217° |
| 2026-05-03 21:45 | 11.59013 | 8.16984 | 40940 ft | 455 kts | 217° |
| 2026-05-03 21:46 | 11.53867 | 8.13227 | 40937 ft | 454 kts | 217° |
| 2026-05-03 21:46 | 11.48732 | 8.09480 | 40952 ft | 454 kts | 217° |
| 2026-05-03 21:47 | 11.43599 | 8.05737 | 40950 ft | 453 kts | 217° |
| 2026-05-03 21:47 | 11.38469 | 8.01997 | 40956 ft | 453 kts | 217° |
| 2026-05-03 21:48 | 11.33350 | 7.98267 | 40963 ft | 452 kts | 217° |
| 2026-05-03 21:48 | 11.28229 | 7.94536 | 40958 ft | 453 kts | 217° |
| 2026-05-03 21:49 | 11.23103 | 7.90804 | 40963 ft | 451 kts | 217° |
| 2026-05-03 21:49 | 11.18067 | 7.87141 | 40387 ft | 442 kts | 217° |
| 2026-05-03 21:50 | 11.15568 | 7.85322 | 39803 ft | 441 kts | 217° |
| 2026-05-03 21:50 | 11.13067 | 7.83503 | 39154 ft | 443 kts | 217° |
| 2026-05-03 21:50 | 11.10581 | 7.81695 | 38671 ft | 441 kts | 217° |
| 2026-05-03 21:50 | 11.08090 | 7.79884 | 38064 ft | 439 kts | 217° |
| 2026-05-03 21:51 | 11.05601 | 7.78075 | 37527 ft | 437 kts | 217° |
| 2026-05-03 21:51 | 11.03142 | 7.76288 | 37032 ft | 434 kts | 217° |
| 2026-05-03 21:51 | 11.00694 | 7.74509 | 36546 ft | 430 kts | 217° |
| 2026-05-03 21:51 | 10.98268 | 7.72747 | 36070 ft | 427 kts | 217° |
| 2026-05-03 21:52 | 10.95854 | 7.70994 | 35599 ft | 425 kts | 217° |
| 2026-05-03 21:52 | 10.93450 | 7.69248 | 35108 ft | 423 kts | 217° |
| 2026-05-03 21:52 | 10.91061 | 7.67513 | 34587 ft | 421 kts | 217° |
| 2026-05-03 21:52 | 10.88676 | 7.65782 | 34098 ft | 420 kts | 217° |
| 2026-05-03 21:53 | 10.86302 | 7.64059 | 33560 ft | 419 kts | 217° |
| 2026-05-03 21:53 | 10.83939 | 7.62344 | 33045 ft | 416 kts | 217° |
| 2026-05-03 21:53 | 10.81583 | 7.60635 | 32540 ft | 414 kts | 217° |
| 2026-05-03 21:53 | 10.79278 | 7.58963 | 32085 ft | 412 kts | 217° |
| 2026-05-03 21:54 | 10.76954 | 7.57278 | 31589 ft | 410 kts | 217° |
| 2026-05-03 21:54 | 10.74638 | 7.55598 | 31123 ft | 408 kts | 217° |
| 2026-05-03 21:54 | 10.72330 | 7.53926 | 30639 ft | 406 kts | 217° |
| 2026-05-03 21:54 | 10.70033 | 7.52260 | 30163 ft | 405 kts | 217° |
| 2026-05-03 21:55 | 10.67741 | 7.50598 | 29612 ft | 404 kts | 217° |
| 2026-05-03 21:55 | 10.65453 | 7.48941 | 29102 ft | 402 kts | 217° |
| 2026-05-03 21:55 | 10.63180 | 7.47295 | 28608 ft | 400 kts | 217° |
| 2026-05-03 21:55 | 10.60825 | 7.45818 | 28125 ft | 398 kts | 207° |
| 2026-05-03 21:56 | 10.58247 | 7.44795 | 27666 ft | 398 kts | 198° |
| 2026-05-03 21:56 | 10.55552 | 7.44187 | 27220 ft | 397 kts | 188° |
| 2026-05-03 21:56 | 10.52815 | 7.43886 | 26769 ft | 395 kts | 186° |
| 2026-05-03 21:56 | 10.50084 | 7.43625 | 26326 ft | 394 kts | 186° |
| 2026-05-03 21:57 | 10.47356 | 7.43370 | 25872 ft | 393 kts | 185° |
| 2026-05-03 21:57 | 10.44633 | 7.43111 | 25420 ft | 392 kts | 185° |
| 2026-05-03 21:57 | 10.41918 | 7.42844 | 24970 ft | 392 kts | 185° |
| 2026-05-03 21:57 | 10.39207 | 7.42571 | 24518 ft | 392 kts | 185° |
| 2026-05-03 21:58 | 10.36494 | 7.42293 | 24078 ft | 391 kts | 185° |
| 2026-05-03 21:58 | 10.33788 | 7.42013 | 23635 ft | 391 kts | 185° |
| 2026-05-03 21:58 | 10.31075 | 7.41732 | 23119 ft | 391 kts | 185° |
| 2026-05-03 21:58 | 10.28373 | 7.41450 | 22644 ft | 389 kts | 185° |
| 2026-05-03 21:59 | 10.25684 | 7.41170 | 22184 ft | 387 kts | 185° |
| 2026-05-03 21:59 | 10.23007 | 7.40891 | 21734 ft | 385 kts | 184° |
| 2026-05-03 21:59 | 10.20346 | 7.40614 | 21287 ft | 384 kts | 184° |
| 2026-05-03 21:59 | 10.17691 | 7.40338 | 20846 ft | 382 kts | 184° |
| 2026-05-03 22:00 | 10.15038 | 7.40062 | 20401 ft | 385 kts | 184° |
| 2026-05-03 22:00 | 10.12365 | 7.39785 | 19953 ft | 388 kts | 183° |
| 2026-05-03 22:00 | 10.09664 | 7.39505 | 19489 ft | 391 kts | 183° |
| 2026-05-03 22:00 | 10.06955 | 7.39224 | 19013 ft | 387 kts | 183° |
| 2026-05-03 22:01 | 10.04349 | 7.38950 | 18546 ft | 366 kts | 182° |
| 2026-05-03 22:01 | 10.01805 | 7.38685 | 18119 ft | 370 kts | 182° |
| 2026-05-03 22:01 | 9.99220 | 7.38420 | 17626 ft | 375 kts | 182° |
| 2026-05-03 22:01 | 9.96670 | 7.38157 | 17160 ft | 370 kts | 182° |
| 2026-05-03 22:02 | 9.94177 | 7.37895 | 16697 ft | 349 kts | 182° |
| 2026-05-03 22:02 | 9.91808 | 7.37647 | 16304 ft | 339 kts | 182° |
| 2026-05-03 22:02 | 9.89441 | 7.37404 | 15921 ft | 345 kts | 182° |
| 2026-05-03 22:02 | 9.87032 | 7.37164 | 15507 ft | 349 kts | 181° |
| 2026-05-03 22:03 | 9.84637 | 7.37294 | 15087 ft | 345 kts | 167° |
| 2026-05-03 22:03 | 9.82302 | 7.37775 | 14664 ft | 329 kts | 164° |
| 2026-05-03 22:03 | 9.80116 | 7.38257 | 14288 ft | 318 kts | 164° |
| 2026-05-03 22:03 | 9.77959 | 7.38732 | 13928 ft | 325 kts | 165° |
| 2026-05-03 22:04 | 9.75692 | 7.39218 | 13487 ft | 333 kts | 165° |
| 2026-05-03 22:04 | 9.73431 | 7.39689 | 13082 ft | 339 kts | 164° |
| 2026-05-03 22:04 | 9.71097 | 7.40167 | 12666 ft | 344 kts | 165° |
| 2026-05-03 22:04 | 9.68697 | 7.40653 | 12241 ft | 349 kts | 165° |
| 2026-05-03 22:05 | 9.66399 | 7.41110 | 11805 ft | 331 kts | 165° |
| 2026-05-03 22:05 | 9.64178 | 7.41549 | 11411 ft | 312 kts | 165° |
| 2026-05-03 22:05 | 9.62034 | 7.41977 | 11070 ft | 317 kts | 165° |
| 2026-05-03 22:05 | 9.59875 | 7.42411 | 10700 ft | 320 kts | 165° |
| 2026-05-03 22:06 | 9.57681 | 7.42850 | 10318 ft | 324 kts | 165° |
| 2026-05-03 22:06 | 9.55547 | 7.43272 | 10100 ft | 300 kts | 165° |
| 2026-05-03 22:06 | 9.53530 | 7.43672 | 9918 ft | 289 kts | 165° |
| 2026-05-03 22:06 | 9.51557 | 7.44069 | 9596 ft | 297 kts | 165° |
| 2026-05-03 22:07 | 9.49505 | 7.44481 | 9246 ft | 303 kts | 165° |
| 2026-05-03 22:07 | 9.47489 | 7.44858 | 8885 ft | 287 kts | 170° |
| 2026-05-03 22:07 | 9.45532 | 7.44866 | 8557 ft | 276 kts | 182° |
| 2026-05-03 22:07 | 9.43654 | 7.44655 | 8254 ft | 269 kts | 185° |
| 2026-05-03 22:08 | 9.41782 | 7.44415 | 7973 ft | 275 kts | 185° |
| 2026-05-03 22:08 | 9.39851 | 7.44176 | 7668 ft | 281 kts | 185° |
| 2026-05-03 22:08 | 9.37921 | 7.43950 | 7334 ft | 275 kts | 184° |
| 2026-05-03 22:08 | 9.36014 | 7.43735 | 7036 ft | 276 kts | 184° |
| 2026-05-03 22:09 | 9.34117 | 7.43528 | 6719 ft | 272 kts | 184° |
| 2026-05-03 22:09 | 9.32238 | 7.43328 | 6414 ft | 272 kts | 184° |
| 2026-05-03 22:09 | 9.30345 | 7.43128 | 6076 ft | 273 kts | 185° |
| 2026-05-03 22:10 | 9.26632 | 7.42742 | 5459 ft | 263 kts | 186° |
| 2026-05-03 22:10 | 9.24847 | 7.42557 | 5337 ft | 251 kts | 186° |
| 2026-05-03 22:10 | 9.23221 | 7.42169 | 5186 ft | 234 kts | 206° |
| 2026-05-03 22:10 | 9.21882 | 7.41341 | 5105 ft | 219 kts | 213° |
| 2026-05-03 22:11 | 9.20634 | 7.40489 | 5015 ft | 214 kts | 215° |
| 2026-05-03 22:11 | 9.19419 | 7.39633 | 4919 ft | 211 kts | 215° |
| 2026-05-03 22:11 | 9.18246 | 7.38799 | 4755 ft | 201 kts | 215° |
| 2026-05-03 22:11 | 9.17119 | 7.37996 | 4499 ft | 195 kts | 216° |
| 2026-05-03 22:12 | 9.16023 | 7.37216 | 4259 ft | 190 kts | 215° |
| 2026-05-03 22:12 | 9.14952 | 7.36454 | 4022 ft | 185 kts | 215° |
| 2026-05-03 22:12 | 9.13942 | 7.35737 | 3806 ft | 170 kts | 215° |
| 2026-05-03 22:12 | 9.13012 | 7.35075 | 3592 ft | 159 kts | 214° |
| 2026-05-03 22:13 | 9.12106 | 7.34431 | 3416 ft | 160 kts | 214° |
| 2026-05-03 22:13 | 9.11201 | 7.33788 | 3204 ft | 157 kts | 214° |
| 2026-05-03 22:13 | 9.10323 | 7.33164 | 3001 ft | 152 kts | 214° |
| 2026-05-03 22:13 | 9.09489 | 7.32571 | 2824 ft | 141 kts | 213° |
| 2026-05-03 22:14 | 9.08698 | 7.32009 | 2649 ft | 138 kts | 214° |
| 2026-05-03 22:14 | 9.07909 | 7.31448 | 2461 ft | 140 kts | 213° |
| 2026-05-03 22:14 | 9.07104 | 7.30877 | 2303 ft | 142 kts | 213° |
| 2026-05-03 22:14 | 9.06306 | 7.30310 | 2125 ft | 144 kts | 213° |
| 2026-05-03 22:15 | 9.05474 | 7.29718 | 1942 ft | 145 kts | 213° |
| 2026-05-03 22:15 | 9.04650 | 7.29133 | 1769 ft | 145 kts | 214° |
| 2026-05-03 22:15 | 9.03826 | 7.28547 | 1588 ft | 145 kts | 214° |
| 2026-05-03 22:15 | 9.03012 | 7.27970 | 1421 ft | 141 kts | 214° |
| 2026-05-03 22:16 | 9.02210 | 7.27399 | 1233 ft | 141 kts | 214° |
| 2026-05-03 22:16 | 9.01411 | 7.26833 | 1138 ft | 135 kts | 214° |
| 2026-05-03 22:16 | 9.00751 | 7.26367 | 1110 ft | 90 kts | 214° |
| 2026-05-03 22:16 | 9.00387 | 7.26110 | 1112 ft | 42 kts | 215° |
| 2026-05-03 22:17 | 9.00170 | 7.26022 | 1109 ft | 24 kts | 178° |
| 2026-05-03 22:17 | 9.00100 | 7.26097 | 1106 ft | 8 kts | 66° |
| 2026-05-03 22:17 | 9.00142 | 7.26139 | 1108 ft | 9 kts | 38° |
| 2026-05-03 22:17 | 9.00198 | 7.26182 | 1107 ft | 11 kts | 35° |
| 2026-05-03 22:18 | 9.00241 | 7.26212 | 1106 ft | 11 kts | 35° |
| 2026-05-03 22:18 | 9.00303 | 7.26256 | 1108 ft | 11 kts | 35° |
| 2026-05-03 22:18 | 9.00367 | 7.26301 | 1109 ft | 12 kts | 35° |
| 2026-05-03 22:18 | 9.00444 | 7.26356 | 1108 ft | 15 kts | 35° |
| 2026-05-03 22:19 | 9.00532 | 7.26417 | 1109 ft | 16 kts | 35° |
| 2026-05-03 22:19 | 9.00621 | 7.26481 | 1111 ft | 16 kts | 34° |
| 2026-05-03 22:19 | 9.00711 | 7.26543 | 1114 ft | 16 kts | 35° |
| 2026-05-03 22:19 | 9.00789 | 7.26609 | 1120 ft | 14 kts | 64° |
| 2026-05-03 22:20 | 9.00768 | 7.26692 | 1130 ft | 14 kts | 154° |
| 2026-05-03 22:20 | 9.00738 | 7.26695 | 1133 ft | 1 kts | 180° |
| 2026-05-03 22:20 | 9.00721 | 7.26695 | 1131 ft | 2 kts | 179° |
| 2026-05-03 22:20 | 9.00707 | 7.26695 | 1133 ft | 0 kts | 180° |